Terminal Aerodrome Forecast
Issued by NWS

Current Version | Previous Version | Text Only | Print | Product List | Glossary On
Versions: 1 2 3 4 5 6 7 8 9 10 11 12 13 14 15 16
992
FTUS45 KTFX 041136
TAFBZN
TAF
KBZN 041136Z 0412/0512 VRB06KT P6SM OVC070
     FM041900 21018G30KT P6SM VCSH OVC035
     FM050100 29012KT 1SM -SN BR OVC015=

USA.gov is the U.S. government's official web portal to all federal, state and local government web resources and services.